Latest Weather Observations for Urandangi

IDQ60801

Issued at 11:05 pm EST Tuesday 16 September 2014 (issued every 30 minutes, with the page automatically refreshed every 10 minutes)

About weather observations | Map of weather stations | Latest weather observations for QLD | Other Formats
Station Details ID: 037058 Name: URANDANGI AERODROME Lat: -21.60 Lon: 138.37 Height: 178.6 m
Data from the previous 72 hours. | See also: Recent months at Urandangi
Date/Time
EST
Temp
°C
App
Temp
°C
Dew
Point
Rel
Hum
%
Delta-T
°C
Wind Press
QNH
hPa
Press
MSL
hPa
Rain
since 9 am
mm
Dir
 
Spd
km/h
Gust
km/h
Spd
kts
Gust
kts
16/11:00pm 18.9 14.9 -5.9 18 9.7 SSE 7 9 4 5 1016.3 1015.6 0.0
16/10:30pm 19.8 15.8 -5.9 17 10.1 SSE 7 9 4 5 1016.3 1015.6 0.0
16/10:00pm 20.6 17.0 -6.9 15 10.7 SSE 4 7 2 4 1016.1 1015.4 0.0
16/09:30pm 21.4 17.4 -7.2 14 11.2 SSE 6 9 3 5 1015.8 1015.1 0.0
16/09:00pm 23.3 19.3 -5.7 14 11.9 SSE 7 9 4 5 1015.4 1014.7 0.0
16/08:30pm 23.9 19.8 -6.2 13 12.3 SE 7 7 4 4 1015.1 1014.4 0.0
16/08:00pm 23.7 20.0 -8.5 11 12.6 SE 4 6 2 3 1014.7 1014.0 0.0
16/07:30pm 25.2 20.6 -8.5 10 13.4 ESE 9 11 5 6 1014.4 1013.7 0.0
16/07:00pm 27.7 23.5 -8.0 9 14.6 ESE 7 9 4 5 1014.0 1013.3 0.0
16/06:30pm 30.3 26.3 -7.6 8 16.0 SSE 6 7 3 4 1013.7 1013.0 0.0
16/06:00pm 32.1 28.0 -6.3 8 16.9 ESE 7 15 4 8 1013.6 1012.9 0.0
16/05:30pm 32.7 28.7 -5.8 8 17.1 E 7 13 4 7 1013.5 1012.8 0.0
16/05:00pm 33.0 27.5 -5.6 8 17.3 S 15 19 8 10 1013.5 1012.8 0.0
16/04:30pm 32.9 28.1 -5.7 8 17.2 SE 11 17 6 9 1013.5 1012.8 0.0
16/04:00pm 33.3 28.2 -5.4 8 17.4 SSW 13 24 7 13 1013.3 1012.6 0.0
16/03:30pm 33.2 28.2 -3.9 9 17.1 S 13 24 7 13 1013.6 1012.9 0.0
16/03:00pm 33.0 29.4 -4.0 9 17.0 SE 6 9 3 5 1013.7 1013.0 0.0
16/02:30pm 32.8 29.1 -2.8 10 16.7 NE 7 13 4 7 1014.1 1013.4 0.0
16/02:00pm 33.3 29.7 -2.4 10 16.9 SE 7 20 4 11 1014.5 1013.8 0.0
16/01:30pm 32.5 28.6 -1.7 11 16.3 ESE 9 17 5 9 1014.9 1014.2 0.0
16/01:00pm 31.6 27.4 -1.2 12 15.6 ESE 11 17 6 9 1015.5 1014.8 0.0
16/12:30pm 31.4 27.9 -1.4 12 15.6 E 7 13 4 7 1015.9 1015.2 0.0
16/12:00pm 31.3 26.6 -1.5 12 15.5 ENE 13 19 7 10 1016.2 1015.5 0.0
16/11:30am 30.7 26.1 -0.8 13 15.0 E 13 22 7 12 1016.7 1016.1 0.0
16/11:00am 29.3 24.3 -0.9 14 14.2 E 15 22 8 12 1017.2 1016.6 0.0
16/10:30am 28.0 22.4 -0.1 16 13.3 ESE 19 26 10 14 1017.6 1017.0 0.0
16/10:00am 26.2 20.4 0.0 18 12.2 ESE 20 28 11 15 1017.9 1017.2 0.0
16/09:30am 24.6 18.5 0.2 20 11.3 SE 22 30 12 16 1018.0 1017.3 0.0
16/09:00am 23.1 17.0 0.2 22 10.5 SE 22 30 12 16 1017.9 1017.2 0.0
16/08:30am 21.3 15.5 -0.1 24 9.6 SE 20 30 11 16 1017.6 1017.0 0.0
16/08:00am 19.8 14.6 -0.2 26 8.8 SE 17 22 9 12 1017.4 1016.8 0.0
16/07:30am 18.1 14.3 -0.7 28 8.1 SSE 9 15 5 8 1017.3 1016.7 0.0
16/07:00am 17.1 12.9 -1.1 29 7.7 SSE 11 15 6 8 1016.9 1016.3 0.0
16/06:30am 17.8 13.2 -0.9 28 8.0 SSE 13 17 7 9 1016.5 1015.8 0.0
16/06:00am 18.1 13.5 -1.2 27 8.2 SSE 13 17 7 9 1016.1 1015.4 0.0
16/05:30am 18.0 13.4 -1.3 27 8.2 SSE 13 17 7 9 1015.6 1014.9 0.0
16/05:00am 17.1 13.2 -1.5 28 7.8 SSE 9 13 5 7 1015.4 1014.7 0.0
16/04:30am 16.7 12.6 -2.9 26 8.0 SSE 9 11 5 6 1015.1 1014.4 0.0
16/04:00am 18.0 13.6 -2.3 25 8.5 SSE 11 15 6 8 1014.9 1014.2 0.0
16/03:30am 20.2 14.8 -1.6 23 9.4 SSE 17 22 9 12 1014.5 1013.8 0.0
16/03:07am 20.1 13.8 -1.1 24 9.3 S 22 33 12 18 1014.3 1013.6 0.0
16/03:00am 15.0 11.7 -4.8 25 7.6 ENE 4 13 2 7 1013.9 1013.2 0.0
16/02:30am 15.6 12.3 -4.3 25 7.8 ENE 4 4 2 2 1013.9 1013.2 0.0
16/02:00am 19.2 14.8 -2.4 23 9.1 ENE 11 13 6 7 1014.2 1013.5 0.0
16/01:30am 19.3 15.8 -1.7 24 9.0 E 7 9 4 5 1014.3 1013.6 0.0
16/01:00am 18.4 15.0 -2.0 25 8.6 E 6 7 3 4 1014.5 1013.8 0.0
16/12:30am 17.3 13.7 -4.0 23 8.5 E 6 7 3 4 1014.7 1014.0 0.0
16/12:00am 17.8 14.5 -4.8 21 8.9 E 4 6 2 3 1014.7 1014.0 0.0
 
Date/Time
EST
Temp
°C
App
Temp
°C
Dew
Point
Rel
Hum
%
Delta-T
°C
Wind Press
QNH
hPa
Press
MSL
hPa
Rain
since 9 am
mm
Dir
 
Spd
km/h
Gust
km/h
Spd
kts
Gust
kts
15/11:30pm 19.1 15.5 -3.7 21 9.4 E 6 7 3 4 1014.7 1014.0 0.0
15/11:00pm 20.2 17.0 -3.4 20 9.8 E 4 6 2 3 1014.7 1014.0 0.0
15/10:30pm 20.7 17.6 -3.0 20 10.0 E 4 6 2 3 1014.8 1014.1 0.0
15/10:00pm 21.5 18.3 -3.1 19 10.4 S 4 9 2 5 1014.9 1014.2 0.0
15/09:30pm 23.4 19.9 -1.5 19 11.1 S 7 7 4 4 1014.9 1014.2 0.0
15/09:00pm 24.0 20.7 -1.0 19 11.3 SSW 6 9 3 5 1014.8 1014.1 0.0
15/08:30pm 24.7 20.1 -1.2 18 11.7 S 13 13 7 7 1014.5 1013.8 0.0
15/08:00pm 25.6 21.7 -1.2 17 12.2 S 9 11 5 6 1014.1 1013.4 0.0
15/07:30pm 27.1 23.4 0.0 17 12.8 S 9 9 5 5 1013.6 1012.9 0.0
15/07:00pm 28.0 24.2 -1.0 15 13.5 SSE 9 11 5 6 1013.2 1012.5 0.0
15/06:30pm 30.6 26.8 -0.9 13 15.0 SE 9 11 5 6 1012.9 1012.2 0.0
15/06:00pm 31.9 27.8 0.1 13 15.5 SSE 11 19 6 10 1012.7 1012.0 0.0
15/05:30pm 32.5 28.0 -0.5 12 16.0 SE 13 20 7 11 1012.6 1011.9 0.0
15/05:00pm 32.7 29.3 -0.4 12 16.1 S 7 15 4 8 1012.5 1011.8 0.0
15/04:30pm 33.4 29.7 0.1 12 16.4 S 9 43 5 23 1012.5 1011.8 0.0
15/04:00pm 33.0 29.1 0.9 13 16.0 SE 11 26 6 14 1012.7 1012.0 0.0
15/03:30pm 33.0 29.1 0.9 13 16.0 SSE 11 20 6 11 1012.8 1012.1 0.0
15/03:00pm 33.2 28.9 1.1 13 16.1 S 13 19 7 10 1013.0 1012.3 0.0
15/02:30pm 33.4 29.9 1.3 13 16.2 SW 9 19 5 10 1013.5 1012.8 0.0
15/02:00pm 33.1 27.6 2.1 14 15.8 S 20 28 11 15 1013.8 1013.1 0.0
15/01:30pm 32.6 29.6 1.7 14 15.6 N 7 13 4 7 1014.2 1013.5 0.0
15/01:00pm 32.2 28.5 2.3 15 15.2 SE 11 17 6 9 1014.7 1014.0 0.0
15/12:30pm 32.6 29.9 2.6 15 15.3 SSE 6 11 3 6 1015.2 1014.5 0.0
15/12:00pm 31.8 28.8 2.0 15 15.0 N 7 13 4 7 1015.8 1015.1 0.0
15/11:30am 31.0 27.7 2.3 16 14.5 ENE 9 17 5 9 1016.3 1015.6 0.0
15/11:00am 29.8 26.8 2.1 17 13.8 N 7 13 4 7 1016.7 1016.1 0.0
15/10:30am 29.2 25.4 1.7 17 13.6 NNE 11 19 6 10 1016.8 1016.2 0.0
15/10:00am 29.0 25.3 2.3 18 13.3 NNE 11 19 6 10 1016.9 1016.3 0.0
15/09:30am 27.3 24.5 3.1 21 12.1 NE 7 11 4 6 1016.9 1016.3 0.0
15/09:00am 25.7 23.1 3.0 23 11.2 S 6 7 3 4 1016.8 1016.2 0.0
15/08:30am 23.0 20.7 2.5 26 9.8 SSW 4 6 2 3 1016.6 1016.0 0.0
15/08:00am 20.2 18.2 2.1 30 8.4 SSW 2 4 1 2 1016.4 1015.7 0.0
15/07:30am 17.2 15.0 0.8 33 7.3 SSW 2 4 1 2 1016.0 1015.3 0.0
15/07:00am 16.2 14.2 -0.1 33 7.0 CALM 0 0 0 0 1015.5 1014.8 0.0
15/06:30am 16.3 14.4 0.8 35 6.8 CALM 0 0 0 0 1015.2 1014.5 0.0
15/06:00am 17.0 14.3 0.2 32 7.3 SSW 4 6 2 3 1014.8 1014.1 0.0
15/05:30am 17.4 15.2 1.0 33 7.3 SSW 2 6 1 3 1014.6 1013.9 0.0
15/05:00am 18.2 15.1 1.3 32 7.6 SSW 7 9 4 5 1014.2 1013.5 0.0
15/04:30am 18.1 16.2 0.3 30 7.9 CALM 0 0 0 0 1013.9 1013.2 0.0
15/04:00am 19.0 16.0 1.1 30 8.1 SE 6 6 3 3 1013.8 1013.1 0.0
15/03:30am 19.0 15.9 0.1 28 8.4 SE 6 7 3 4 1013.9 1013.2 0.0
15/03:00am 20.2 17.6 1.1 28 8.7 SE 4 4 2 2 1014.2 1013.5 0.0
15/02:30am 20.6 17.1 1.0 27 9.0 ESE 9 11 5 6 1014.6 1013.9 0.0
15/02:00am 20.7 18.1 1.1 27 9.0 SE 4 7 2 4 1014.6 1013.9 0.0
15/01:30am 21.4 19.7 1.7 27 9.2 CALM 0 2 0 1 1014.7 1014.0 0.0
15/01:00am 21.5 19.1 2.2 28 9.1 S 4 6 2 3 1015.0 1014.3 0.0
15/12:30am 20.2 17.6 1.1 28 8.7 S 4 4 2 2 1015.1 1014.4 0.0
15/12:00am 21.4 18.4 2.2 28 9.0 S 7 9 4 5 1015.2 1014.5 0.0
 
Date/Time
EST
Temp
°C
App
Temp
°C
Dew
Point
Rel
Hum
%
Delta-T
°C
Wind Press
QNH
hPa
Press
MSL
hPa
Rain
since 9 am
mm
Dir
 
Spd
km/h
Gust
km/h
Spd
kts
Gust
kts
14/11:30pm 22.1 18.5 2.8 28 9.2 S 11 15 6 8 1015.2 1014.5 0.0
14/11:00pm 21.5 17.7 1.7 27 9.2 SE 11 13 6 7 1015.2 1014.5 0.0
14/10:30pm 21.1 17.9 0.9 26 9.3 SE 7 9 4 5 1015.0 1014.3 0.0
14/10:00pm 22.3 19.6 2.4 27 9.5 ESE 6 7 3 4 1014.9 1014.2 0.0
14/09:30pm 22.8 20.3 1.8 25 9.9 S 4 6 2 3 1014.9 1014.2 0.0
14/09:00pm 23.8 20.9 2.6 25 10.2 S 7 11 4 6 1014.7 1014.0 0.0
14/08:30pm 24.8 21.3 3.5 25 10.5 S 11 13 6 7 1014.4 1013.7 0.0
14/08:00pm 25.3 21.7 2.7 23 11.0 S 11 13 6 7 1014.2 1013.5 0.0
14/07:30pm 26.3 23.1 2.9 22 11.6 S 9 11 5 6 1013.9 1013.2 0.0
14/07:00pm 27.7 24.4 2.7 20 12.4 SSE 9 11 5 6 1013.6 1012.9 0.0
14/06:30pm 30.0 26.8 3.1 18 13.7 SE 9 15 5 8 1013.3 1012.6 0.0
14/06:00pm 31.3 27.8 3.4 17 14.4 SE 11 24 6 13 1013.0 1012.3 0.0
14/05:30pm 31.9 27.9 3.0 16 14.8 E 13 17 7 9 1013.0 1012.3 0.0
14/05:00pm 32.2 28.6 3.2 16 15.0 ESE 11 20 6 11 1013.0 1012.3 0.0
14/04:30pm 32.5 29.0 3.5 16 15.0 ESE 11 19 6 10 1013.0 1012.3 0.0
14/04:00pm 32.2 27.9 3.2 16 15.0 ESE 15 24 8 13 1013.1 1012.4 0.0
14/03:30pm 31.9 27.6 3.0 16 14.8 ESE 15 28 8 15 1013.2 1012.5 0.0
14/03:00pm 32.1 28.1 3.1 16 14.9 ESE 13 24 7 13 1013.6 1012.9 0.0
14/02:30pm 32.4 27.6 2.5 15 15.3 SE 17 28 9 15 1013.9 1013.2 0.0
14/02:00pm 31.7 28.6 3.7 17 14.5 ESE 9 20 5 11 1014.4 1013.7 0.0
14/01:30pm 32.3 26.7 3.3 16 15.0 ESE 22 30 12 16 1015.0 1014.3 0.0
14/01:00pm 32.0 28.2 3.9 17 14.6 SE 13 22 7 12 1015.4 1014.7 0.0
14/12:30pm 31.1 26.4 3.2 17 14.3 E 17 28 9 15 1016.1 1015.4 0.0
14/12:00pm 31.0 27.4 3.1 17 14.2 E 11 17 6 9 1016.8 1016.2 0.0
14/11:30am 29.2 25.6 3.2 19 13.2 E 11 17 6 9 1017.3 1016.7 0.0
14/11:00am 28.2 24.9 2.4 19 12.8 E 9 15 5 8 1017.9 1017.2 0.0
14/10:30am 26.6 23.2 1.8 20 12.0 ESE 9 17 5 9 1018.1 1017.4 0.0
14/10:00am 25.1 20.8 1.3 21 11.3 SE 13 17 7 9 1018.2 1017.5 0.0
14/09:30am 23.2 18.6 -1.0 20 10.9 SSE 13 17 7 9 1018.3 1017.6 0.0
14/09:00am 21.7 16.6 -1.6 21 10.2 SSE 15 17 8 9 1018.3 1017.6 0.0
14/08:30am 19.8 14.6 -2.5 22 9.4 SSE 15 19 8 10 1018.2 1017.5 0.0
14/08:00am 17.0 13.4 -3.7 24 8.3 SE 6 9 3 5 1018.0 1017.3 0.0
14/07:30am 13.0 9.3 -4.6 29 6.6 ESE 6 7 3 4 1017.5 1016.9 0.0
14/07:00am 11.3 8.0 -4.8 32 5.9 ESE 4 6 2 3 1017.0 1016.4 0.0
14/06:30am 11.4 7.6 -5.1 31 6.0 ESE 6 7 3 4 1016.6 1016.0 0.0
14/06:00am 11.7 7.8 -4.8 31 6.1 ESE 7 9 4 5 1016.3 1015.6 0.0
14/05:30am 12.0 8.3 -4.6 31 6.2 SSE 6 7 3 4 1016.2 1015.5 0.0
14/05:00am 11.3 7.5 -5.2 31 6.0 SSE 6 9 3 5 1016.2 1015.5 0.0
14/04:30am 12.5 8.7 -4.1 31 6.3 SSE 7 7 4 4 1016.2 1015.5 0.0
14/04:00am 13.0 9.4 -3.7 31 6.4 SSE 6 7 3 4 1016.5 1015.8 0.0
14/03:30am 13.5 9.7 -3.7 30 6.7 SSE 7 7 4 4 1016.6 1016.0 0.0
14/03:00am 14.3 10.6 -3.0 30 6.8 SSE 7 7 4 4 1016.8 1016.2 0.0
14/02:30am 14.7 11.3 -2.2 31 6.8 SSE 6 7 3 4 1017.0 1016.4 0.0
14/02:00am 14.7 11.2 -2.7 30 7.0 S 6 7 3 4 1017.0 1016.4 0.0
14/01:30am 15.3 12.2 -2.6 29 7.2 S 4 6 2 3 1017.3 1016.7 0.0
14/01:00am 15.4 11.8 -2.1 30 7.1 S 7 9 4 5 1017.4 1016.8 0.0
14/12:30am 16.0 12.5 -2.5 28 7.5 S 6 6 3 3 1017.6 1017.0 0.0
14/12:00am 17.1 13.6 -1.5 28 7.8 S 7 7 4 4 1017.6 1017.0 0.0
 
Date/Time
EST
Temp
°C
App
Temp
°C
Dew
Point
Rel
Hum
%
Delta-T
°C
Wind Press
QNH
hPa
Press
MSL
hPa
Rain
since 9 am
mm
Dir
 
Spd
km/h
Gust
km/h
Spd
kts
Gust
kts
13/11:30pm 17.7 14.1 -2.0 26 8.3 S 7 9 4 5 1017.6 1017.0 0.0

Other Formats:

Comma delimited format used in spreadsheet applications
http://www.bom.gov.au/fwo/IDQ60801/IDQ60801.94344.axf

JavaScript Object Notation format (JSON) in row-major order
http://www.bom.gov.au/fwo/IDQ60801/IDQ60801.94344.json